Capistrano, Brazil
Current Conditions -  °F | °C
As of 4:00 PM on Monday 22 Dec 2014 (Local Time) from SBFZ Reporting Station
Few Clouds Few Clouds  
Wind Chill: 84°   Ceiling: Unl
Heat Index: 86°   Visibility: 6mi
Dew Point: 64°   Wind: 15mph
Humidity: 51%   Direction: 70°ENE
Pressure: 29.85"   Gusts: NA
Location:  4.47°S, 38.9°W
Report Text: SBFZ 221900Z 07013KT 9999 FEW025 29/18 Q1011
Loading
Personal Weather Stations






























Interactive Weather Map New forecast layout! Learn more

10-Day Weather Forecast

Advertisements
Track Severe Weather on mobile